sensor_id;sensor_type;location;lat;lon;timestamp;pressure;altitude;pressure_sealevel;temperature;humidity
19676;BME280;39539;52.202;9.876;2023-01-19T00:01:18;99190.13;;;-1.07;100.00
19676;BME280;39539;52.202;9.876;2023-01-19T00:03:44;99193.06;;;-1.02;100.00
19676;BME280;39539;52.202;9.876;2023-01-19T00:06:09;99190.44;;;-1.02;100.00
19676;BME280;39539;52.202;9.876;2023-01-19T00:08:35;99197.28;;;-1.01;100.00
19676;BME280;39539;52.202;9.876;2023-01-19T00:11:01;99191.28;;;-1.09;100.00
19676;BME280;39539;52.202;9.876;2023-01-19T00:13:26;99194.34;;;-1.06;100.00
19676;BME280;39539;52.202;9.876;2023-01-19T00:15:52;99189.31;;;-1.07;100.00
19676;BME280;39539;52.202;9.876;2023-01-19T00:18:17;99189.78;;;-1.04;100.00
19676;BME280;39539;52.202;9.876;2023-01-19T00:20:46;99180.97;;;-1.03;100.00
19676;BME280;39539;52.202;9.876;2023-01-19T00:23:12;99179.81;;;-1.00;100.00
19676;BME280;39539;52.202;9.876;2023-01-19T00:25:38;99174.16;;;-1.04;100.00
19676;BME280;39539;52.202;9.876;2023-01-19T00:28:07;99178.38;;;-1.11;100.00
19676;BME280;39539;52.202;9.876;2023-01-19T00:30:32;99182.00;;;-1.12;100.00
19676;BME280;39539;52.202;9.876;2023-01-19T00:32:58;99183.59;;;-1.11;100.00
19676;BME280;39539;52.202;9.876;2023-01-19T00:35:23;99189.81;;;-1.12;100.00
19676;BME280;39539;52.202;9.876;2023-01-19T00:37:49;99200.91;;;-1.10;100.00
19676;BME280;39539;52.202;9.876;2023-01-19T00:40:15;99193.69;;;-1.08;100.00
19676;BME280;39539;52.202;9.876;2023-01-19T00:42:41;99183.28;;;-1.08;100.00
19676;BME280;39539;52.202;9.876;2023-01-19T00:45:14;99175.47;;;-1.16;100.00
19676;BME280;39539;52.202;9.876;2023-01-19T00:47:40;99193.53;;;-1.06;100.00
19676;BME280;39539;52.202;9.876;2023-01-19T00:50:07;99191.88;;;-0.99;100.00
19676;BME280;39539;52.202;9.876;2023-01-19T00:52:40;99182.44;;;-1.00;100.00
19676;BME280;39539;52.202;9.876;2023-01-19T00:55:06;99178.34;;;-0.95;100.00
19676;BME280;39539;52.202;9.876;2023-01-19T00:57:32;99176.97;;;-0.82;100.00
19676;BME280;39539;52.202;9.876;2023-01-19T00:59:57;99174.00;;;-0.79;100.00
19676;BME280;39539;52.202;9.876;2023-01-19T01:02:23;99166.53;;;-0.82;100.00
19676;BME280;39539;52.202;9.876;2023-01-19T01:04:48;99155.19;;;-0.89;100.00
19676;BME280;39539;52.202;9.876;2023-01-19T01:07:20;99175.34;;;-0.83;100.00
19676;BME280;39539;52.202;9.876;2023-01-19T01:09:45;99172.59;;;-0.82;100.00
19676;BME280;39539;52.202;9.876;2023-01-19T01:12:10;99160.84;;;-0.86;100.00
19676;BME280;39539;52.202;9.876;2023-01-19T01:14:36;99171.91;;;-0.76;100.00
19676;BME280;39539;52.202;9.876;2023-01-19T01:17:01;99188.34;;;-0.75;100.00
19676;BME280;39539;52.202;9.876;2023-01-19T01:19:27;99189.84;;;-0.81;100.00
19676;BME280;39539;52.202;9.876;2023-01-19T01:21:52;99183.69;;;-0.88;100.00
19676;BME280;39539;52.202;9.876;2023-01-19T01:24:17;99187.13;;;-0.87;100.00
19676;BME280;39539;52.202;9.876;2023-01-19T01:26:43;99186.13;;;-0.86;100.00
19676;BME280;39539;52.202;9.876;2023-01-19T01:29:08;99184.19;;;-0.93;100.00
19676;BME280;39539;52.202;9.876;2023-01-19T01:31:34;99189.91;;;-0.97;100.00
19676;BME280;39539;52.202;9.876;2023-01-19T01:33:59;99167.44;;;-0.98;100.00
19676;BME280;39539;52.202;9.876;2023-01-19T01:36:25;99191.19;;;-0.85;100.00
19676;BME280;39539;52.202;9.876;2023-01-19T01:38:53;99190.00;;;-0.82;100.00
19676;BME280;39539;52.202;9.876;2023-01-19T01:41:18;99191.34;;;-0.86;100.00
19676;BME280;39539;52.202;9.876;2023-01-19T01:43:50;99194.59;;;-0.84;100.00
19676;BME280;39539;52.202;9.876;2023-01-19T01:46:18;99189.72;;;-0.87;100.00
19676;BME280;39539;52.202;9.876;2023-01-19T01:48:59;99187.13;;;-0.87;100.00
19676;BME280;39539;52.202;9.876;2023-01-19T01:51:38;99180.94;;;-0.95;100.00
19676;BME280;39539;52.202;9.876;2023-01-19T01:56:35;99189.72;;;-0.87;100.00
19676;BME280;39539;52.202;9.876;2023-01-19T01:59:06;99187.06;;;-0.79;100.00
19676;BME280;39539;52.202;9.876;2023-01-19T02:01:33;99196.22;;;-0.83;100.00
19676;BME280;39539;52.202;9.876;2023-01-19T02:04:17;99188.72;;;-0.86;100.00
19676;BME280;39539;52.202;9.876;2023-01-19T02:06:44;99194.25;;;-0.81;100.00
19676;BME280;39539;52.202;9.876;2023-01-19T02:09:31;99184.44;;;-0.79;100.00
19676;BME280;39539;52.202;9.876;2023-01-19T02:12:17;99187.75;;;-0.85;100.00
19676;BME280;39539;52.202;9.876;2023-01-19T02:15:01;99198.66;;;-0.82;100.00
19676;BME280;39539;52.202;9.876;2023-01-19T02:17:26;99183.94;;;-0.75;100.00
19676;BME280;39539;52.202;9.876;2023-01-19T02:19:51;99178.44;;;-0.80;100.00
19676;BME280;39539;52.202;9.876;2023-01-19T02:22:23;99175.97;;;-0.73;100.00
19676;BME280;39539;52.202;9.876;2023-01-19T02:24:50;99183.94;;;-0.75;100.00
19676;BME280;39539;52.202;9.876;2023-01-19T02:27:16;99178.53;;;-0.65;100.00
19676;BME280;39539;52.202;9.876;2023-01-19T02:29:42;99181.31;;;-0.66;100.00
19676;BME280;39539;52.202;9.876;2023-01-19T02:32:07;99186.53;;;-0.66;100.00
19676;BME280;39539;52.202;9.876;2023-01-19T02:34:33;99184.41;;;-0.71;100.00
19676;BME280;39539;52.202;9.876;2023-01-19T02:37:02;99187.22;;;-0.73;100.00
19676;BME280;39539;52.202;9.876;2023-01-19T02:42:16;99198.94;;;-0.77;100.00
19676;BME280;39539;52.202;9.876;2023-01-19T02:44:45;99193.81;;;-0.85;100.00
19676;BME280;39539;52.202;9.876;2023-01-19T02:47:12;99203.25;;;-0.92;100.00
19676;BME280;39539;52.202;9.876;2023-01-19T02:49:38;99201.81;;;-0.95;100.00
19676;BME280;39539;52.202;9.876;2023-01-19T02:52:04;99207.66;;;-0.84;100.00
19676;BME280;39539;52.202;9.876;2023-01-19T03:00:11;99213.63;;;-0.76;100.00
19676;BME280;39539;52.202;9.876;2023-01-19T03:10:53;99220.28;;;-0.65;100.00
19676;BME280;39539;52.202;9.876;2023-01-19T03:16:35;99233.47;;;-0.66;100.00
19676;BME280;39539;52.202;9.876;2023-01-19T03:19:07;99226.78;;;-0.61;100.00
19676;BME280;39539;52.202;9.876;2023-01-19T03:21:36;99211.22;;;-0.54;100.00
19676;BME280;39539;52.202;9.876;2023-01-19T03:24:05;99229.97;;;-0.42;100.00
19676;BME280;39539;52.202;9.876;2023-01-19T03:26:38;99227.28;;;-0.34;100.00
19676;BME280;39539;52.202;9.876;2023-01-19T03:29:06;99216.69;;;-0.33;100.00
19676;BME280;39539;52.202;9.876;2023-01-19T03:31:33;99216.31;;;-0.30;100.00
19676;BME280;39539;52.202;9.876;2023-01-19T03:34:09;99219.16;;;-0.39;100.00
19676;BME280;39539;52.202;9.876;2023-01-19T03:36:44;99218.81;;;-0.36;100.00
19676;BME280;39539;52.202;9.876;2023-01-19T03:39:13;99221.81;;;-0.48;100.00
19676;BME280;39539;52.202;9.876;2023-01-19T03:41:42;99226.53;;;-0.51;100.00
19676;BME280;39539;52.202;9.876;2023-01-19T03:44:11;99219.50;;;-0.42;100.00
19676;BME280;39539;52.202;9.876;2023-01-19T03:46:37;99227.88;;;-0.24;100.00
19676;BME280;39539;52.202;9.876;2023-01-19T03:49:03;99225.56;;;-0.19;100.00
19676;BME280;39539;52.202;9.876;2023-01-19T03:51:28;99229.41;;;-0.07;100.00
19676;BME280;39539;52.202;9.876;2023-01-19T03:53:54;99226.28;;;-0.02;100.00
19676;BME280;39539;52.202;9.876;2023-01-19T03:56:23;99228.00;;;0.06;100.00
19676;BME280;39539;52.202;9.876;2023-01-19T03:58:50;99222.31;;;0.02;100.00
19676;BME280;39539;52.202;9.876;2023-01-19T04:01:17;99204.72;;;-0.04;100.00
19676;BME280;39539;52.202;9.876;2023-01-19T04:03:46;99218.09;;;0.01;100.00
19676;BME280;39539;52.202;9.876;2023-01-19T04:06:12;99219.88;;;0.01;100.00
19676;BME280;39539;52.202;9.876;2023-01-19T04:08:37;99225.66;;;0.11;100.00
19676;BME280;39539;52.202;9.876;2023-01-19T04:11:02;99213.59;;;0.10;100.00
19676;BME280;39539;52.202;9.876;2023-01-19T04:13:28;99212.97;;;0.08;100.00
19676;BME280;39539;52.202;9.876;2023-01-19T04:15:58;99211.50;;;0.05;100.00
19676;BME280;39539;52.202;9.876;2023-01-19T04:18:23;99215.56;;;0.08;100.00
19676;BME280;39539;52.202;9.876;2023-01-19T04:20:49;99192.41;;;0.05;100.00
19676;BME280;39539;52.202;9.876;2023-01-19T04:23:14;99181.69;;;-0.01;100.00
19676;BME280;39539;52.202;9.876;2023-01-19T04:25:39;99200.31;;;-0.04;100.00
19676;BME280;39539;52.202;9.876;2023-01-19T04:28:05;99201.78;;;-0.01;100.00
19676;BME280;39539;52.202;9.876;2023-01-19T04:30:30;99206.59;;;-0.13;100.00
19676;BME280;39539;52.202;9.876;2023-01-19T04:32:57;99199.22;;;-0.09;100.00
19676;BME280;39539;52.202;9.876;2023-01-19T04:35:23;99199.81;;;0.01;100.00
19676;BME280;39539;52.202;9.876;2023-01-19T04:37:48;99212.91;;;0.16;100.00
19676;BME280;39539;52.202;9.876;2023-01-19T04:40:14;99201.94;;;0.20;100.00
19676;BME280;39539;52.202;9.876;2023-01-19T04:42:43;99204.94;;;0.32;100.00
19676;BME280;39539;52.202;9.876;2023-01-19T04:45:10;99208.25;;;0.26;100.00
19676;BME280;39539;52.202;9.876;2023-01-19T04:47:37;99204.41;;;0.37;100.00
19676;BME280;39539;52.202;9.876;2023-01-19T04:50:03;99206.13;;;0.44;100.00
19676;BME280;39539;52.202;9.876;2023-01-19T04:52:31;99201.59;;;0.38;100.00
19676;BME280;39539;52.202;9.876;2023-01-19T04:54:59;99194.94;;;0.36;100.00
19676;BME280;39539;52.202;9.876;2023-01-19T04:57:25;99200.25;;;0.42;100.00
19676;BME280;39539;52.202;9.876;2023-01-19T04:59:50;99186.13;;;0.37;100.00
19676;BME280;39539;52.202;9.876;2023-01-19T05:02:15;99188.53;;;0.38;100.00
19676;BME280;39539;52.202;9.876;2023-01-19T05:04:41;99192.31;;;0.36;100.00
19676;BME280;39539;52.202;9.876;2023-01-19T05:07:07;99183.75;;;0.27;100.00
19676;BME280;39539;52.202;9.876;2023-01-19T05:09:32;99186.66;;;0.32;100.00
19676;BME280;39539;52.202;9.876;2023-01-19T05:11:57;99183.59;;;0.29;100.00
19676;BME280;39539;52.202;9.876;2023-01-19T05:14:23;99182.50;;;0.23;100.00
19676;BME280;39539;52.202;9.876;2023-01-19T05:16:48;99184.63;;;0.19;100.00
19676;BME280;39539;52.202;9.876;2023-01-19T05:19:13;99182.50;;;0.23;100.00
19676;BME280;39539;52.202;9.876;2023-01-19T05:21:39;99192.31;;;0.36;100.00
19676;BME280;39539;52.202;9.876;2023-01-19T05:24:05;99197.53;;;0.36;100.00
19676;BME280;39539;52.202;9.876;2023-01-19T05:26:30;99197.63;;;0.42;100.00
19676;BME280;39539;52.202;9.876;2023-01-19T05:28:55;99206.13;;;0.44;100.00
19676;BME280;39539;52.202;9.876;2023-01-19T05:31:21;99198.91;;;0.47;100.00
19676;BME280;39539;52.202;9.876;2023-01-19T05:33:47;99203.00;;;0.49;100.00
19676;BME280;39539;52.202;9.876;2023-01-19T05:36:13;99201.91;;;0.58;100.00
19676;BME280;39539;52.202;9.876;2023-01-19T05:38:38;99180.56;;;0.55;100.00
19676;BME280;39539;52.202;9.876;2023-01-19T05:41:04;99190.38;;;0.53;100.00
19676;BME280;39539;52.202;9.876;2023-01-19T05:43:29;99189.72;;;0.51;100.00
19676;BME280;39539;52.202;9.876;2023-01-19T05:45:54;99192.19;;;0.52;100.00
19676;BME280;39539;52.202;9.876;2023-01-19T05:48:20;99199.00;;;0.53;100.00
19676;BME280;39539;52.202;9.876;2023-01-19T05:50:45;99201.75;;;0.60;100.00
19676;BME280;39539;52.202;9.876;2023-01-19T05:53:12;99205.53;;;0.57;100.00
19676;BME280;39539;52.202;9.876;2023-01-19T05:55:38;99210.69;;;0.65;100.00
19676;BME280;39539;52.202;9.876;2023-01-19T05:58:03;99209.69;;;0.66;100.00
19676;BME280;39539;52.202;9.876;2023-01-19T06:00:29;99214.91;;;0.66;100.00
19676;BME280;39539;52.202;9.876;2023-01-19T06:02:54;99212.47;;;0.65;100.00
19676;BME280;39539;52.202;9.876;2023-01-19T06:05:19;99211.47;;;0.66;100.00
19676;BME280;39539;52.202;9.876;2023-01-19T06:07:46;99216.78;;;0.58;100.00
19676;BME280;39539;52.202;9.876;2023-01-19T06:10:11;99218.03;;;0.62;100.00
19676;BME280;39539;52.202;9.876;2023-01-19T06:12:40;99211.91;;;0.55;100.00
19676;BME280;39539;52.202;9.876;2023-01-19T06:15:06;99215.78;;;0.59;100.00
19676;BME280;39539;52.202;9.876;2023-01-19T06:17:32;99213.47;;;0.64;100.00
19676;BME280;39539;52.202;9.876;2023-01-19T06:19:58;99215.63;;;0.60;100.00
19676;BME280;39539;52.202;9.876;2023-01-19T06:22:23;99209.75;;;0.58;100.00
19676;BME280;39539;52.202;9.876;2023-01-19T06:24:49;99212.66;;;0.63;100.00
19676;BME280;39539;52.202;9.876;2023-01-19T06:27:14;99208.88;;;0.66;100.00
19676;BME280;39539;52.202;9.876;2023-01-19T06:29:40;99222.94;;;0.80;100.00
19676;BME280;39539;52.202;9.876;2023-01-19T06:32:06;99228.34;;;0.78;100.00
19676;BME280;39539;52.202;9.876;2023-01-19T06:34:31;99220.59;;;0.70;100.00
19676;BME280;39539;52.202;9.876;2023-01-19T06:36:57;99227.16;;;0.66;100.00
19676;BME280;39539;52.202;9.876;2023-01-19T06:39:22;99228.25;;;0.72;100.00
19676;BME280;39539;52.202;9.876;2023-01-19T06:41:48;99229.78;;;0.66;100.00
19676;BME280;39539;52.202;9.876;2023-01-19T06:44:14;99232.69;;;0.71;100.00
19676;BME280;39539;52.202;9.876;2023-01-19T06:46:39;99221.66;;;0.61;100.00
19676;BME280;39539;52.202;9.876;2023-01-19T06:49:05;99237.63;;;0.66;100.00
19676;BME280;39539;52.202;9.876;2023-01-19T06:51:30;99230.44;;;0.68;100.00
19676;BME280;39539;52.202;9.876;2023-01-19T06:53:56;99239.16;;;0.75;100.00
19676;BME280;39539;52.202;9.876;2023-01-19T06:56:22;99232.41;;;0.81;100.00
19676;BME280;39539;52.202;9.876;2023-01-19T06:58:47;99226.44;;;0.72;100.00
19676;BME280;39539;52.202;9.876;2023-01-19T07:01:14;99231.78;;;0.79;100.00
19676;BME280;39539;52.202;9.876;2023-01-19T07:03:40;99232.31;;;0.74;100.00
19676;BME280;39539;52.202;9.876;2023-01-19T07:06:05;99230.06;;;0.71;100.00
19676;BME280;39539;52.202;9.876;2023-01-19T07:08:32;99243.31;;;0.84;100.00
19676;BME280;39539;52.202;9.876;2023-01-19T07:11:02;99239.53;;;0.87;100.00
19676;BME280;39539;52.202;9.876;2023-01-19T07:13:31;99243.78;;;0.88;100.00
19676;BME280;39539;52.202;9.876;2023-01-19T07:15:57;99232.84;;;0.84;100.00
19676;BME280;39539;52.202;9.876;2023-01-19T07:18:23;99228.63;;;0.69;100.00
19676;BME280;39539;52.202;9.876;2023-01-19T07:20:48;99241.72;;;0.83;100.00
19676;BME280;39539;52.202;9.876;2023-01-19T07:23:15;99240.91;;;0.83;100.00
19676;BME280;39539;52.202;9.876;2023-01-19T07:25:43;99236.91;;;0.72;100.00
19676;BME280;39539;52.202;9.876;2023-01-19T07:28:08;99234.66;;;0.69;100.00
19676;BME280;39539;52.202;9.876;2023-01-19T07:30:35;99233.03;;;0.68;100.00
19676;BME280;39539;52.202;9.876;2023-01-19T07:33:00;99233.03;;;0.68;100.00
19676;BME280;39539;52.202;9.876;2023-01-19T07:35:27;99230.69;;;0.73;100.00
19676;BME280;39539;52.202;9.876;2023-01-19T07:37:54;99241.72;;;0.83;100.00
19676;BME280;39539;52.202;9.876;2023-01-19T07:40:19;99232.59;;;0.79;100.00
19676;BME280;39539;52.202;9.876;2023-01-19T07:42:49;99253.41;;;0.87;100.00
19676;BME280;39539;52.202;9.876;2023-01-19T07:45:15;99248.63;;;0.76;100.00
19676;BME280;39539;52.202;9.876;2023-01-19T07:47:45;99254.78;;;0.83;100.00
19676;BME280;39539;52.202;9.876;2023-01-19T07:50:13;99263.53;;;0.90;100.00
19676;BME280;39539;52.202;9.876;2023-01-19T07:52:39;99262.84;;;0.97;100.00
19676;BME280;39539;52.202;9.876;2023-01-19T07:55:06;99264.97;;;0.93;100.00
19676;BME280;39539;52.202;9.876;2023-01-19T07:57:31;99266.25;;;0.97;100.00
19676;BME280;39539;52.202;9.876;2023-01-19T07:59:56;99270.41;;;1.21;99.60
19676;BME280;39539;52.202;9.876;2023-01-19T08:02:22;99266.72;;;1.30;98.68
19676;BME280;39539;52.202;9.876;2023-01-19T08:04:48;99270.22;;;1.38;97.33
19676;BME280;39539;52.202;9.876;2023-01-19T08:07:13;99280.59;;;1.46;95.44
19676;BME280;39539;52.202;9.876;2023-01-19T08:09:38;99280.22;;;1.49;95.45
19676;BME280;39539;52.202;9.876;2023-01-19T08:12:04;99250.00;;;1.31;95.64
19676;BME280;39539;52.202;9.876;2023-01-19T08:14:30;99278.34;;;1.43;95.65
19676;BME280;39539;52.202;9.876;2023-01-19T08:17:04;99253.97;;;1.27;95.78
19676;BME280;39539;52.202;9.876;2023-01-19T08:19:29;99258.84;;;1.30;96.36
19676;BME280;39539;52.202;9.876;2023-01-19T08:21:56;99267.69;;;1.15;97.63
19676;BME280;39539;52.202;9.876;2023-01-19T08:24:23;99259.22;;;0.98;100.00
19676;BME280;39539;52.202;9.876;2023-01-19T08:27:00;99255.78;;;1.12;100.00
19676;BME280;39539;52.202;9.876;2023-01-19T08:29:26;99255.03;;;1.33;98.86
19676;BME280;39539;52.202;9.876;2023-01-19T08:31:52;99253.31;;;1.55;98.99
19676;BME280;39539;52.202;9.876;2023-01-19T08:34:20;99262.06;;;1.98;94.76
19676;BME280;39539;52.202;9.876;2023-01-19T08:36:45;99259.00;;;2.38;93.14
19676;BME280;39539;52.202;9.876;2023-01-19T08:39:11;99252.91;;;2.59;90.33
19676;BME280;39539;52.202;9.876;2023-01-19T08:41:37;99249.16;;;2.18;90.55
19676;BME280;39539;52.202;9.876;2023-01-19T08:44:02;99260.16;;;2.57;90.87
19676;BME280;39539;52.202;9.876;2023-01-19T08:46:28;99265.69;;;2.68;90.10
19676;BME280;39539;52.202;9.876;2023-01-19T08:48:53;99275.47;;;3.09;87.51
19676;BME280;39539;52.202;9.876;2023-01-19T08:51:22;99268.13;;;2.70;88.90
19676;BME280;39539;52.202;9.876;2023-01-19T08:53:48;99260.56;;;2.11;91.83
19676;BME280;39539;52.202;9.876;2023-01-19T08:56:13;99261.38;;;1.90;95.16
19676;BME280;39539;52.202;9.876;2023-01-19T08:58:40;99260.78;;;1.58;96.52
19676;BME280;39539;52.202;9.876;2023-01-19T09:01:07;99269.44;;;1.73;97.49
19676;BME280;39539;52.202;9.876;2023-01-19T09:03:34;99274.75;;;1.80;97.16
19676;BME280;39539;52.202;9.876;2023-01-19T09:06:00;99274.22;;;1.70;97.09
19676;BME280;39539;52.202;9.876;2023-01-19T09:08:26;99274.16;;;1.63;99.47
19676;BME280;39539;52.202;9.876;2023-01-19T09:10:51;99260.47;;;1.31;100.00
19676;BME280;39539;52.202;9.876;2023-01-19T09:13:18;99264.44;;;1.27;100.00
19676;BME280;39539;52.202;9.876;2023-01-19T09:15:44;99274.91;;;1.27;100.00
19676;BME280;39539;52.202;9.876;2023-01-19T09:18:13;99274.91;;;1.27;100.00
19676;BME280;39539;52.202;9.876;2023-01-19T09:20:40;99268.13;;;1.33;100.00
19676;BME280;39539;52.202;9.876;2023-01-19T09:23:10;99267.88;;;1.43;100.00
19676;BME280;39539;52.202;9.876;2023-01-19T09:25:37;99265.31;;;1.49;100.00
19676;BME280;39539;52.202;9.876;2023-01-19T09:28:08;99273.09;;;1.43;100.00
19676;BME280;39539;52.202;9.876;2023-01-19T09:30:35;99275.38;;;1.31;100.00
19676;BME280;39539;52.202;9.876;2023-01-19T09:33:03;99284.75;;;1.40;100.00
19676;BME280;39539;52.202;9.876;2023-01-19T09:35:33;99277.63;;;1.34;100.00
19676;BME280;39539;52.202;9.876;2023-01-19T09:37:59;99284.91;;;1.39;100.00
19676;BME280;39539;52.202;9.876;2023-01-19T09:40:25;99295.94;;;1.49;100.00
19676;BME280;39539;52.202;9.876;2023-01-19T09:43:05;99307.19;;;1.64;100.00
19676;BME280;39539;52.202;9.876;2023-01-19T09:45:57;99307.28;;;1.71;100.00
19676;BME280;39539;52.202;9.876;2023-01-19T09:50:55;99291.84;;;1.61;100.00
19676;BME280;39539;52.202;9.876;2023-01-19T09:53:38;99310.56;;;1.73;100.00
19676;BME280;39539;52.202;9.876;2023-01-19T09:56:14;99307.00;;;1.80;100.00
19676;BME280;39539;52.202;9.876;2023-01-19T09:58:40;99317.84;;;2.14;100.00
19676;BME280;39539;52.202;9.876;2023-01-19T10:01:35;99331.31;;;2.11;100.00
19676;BME280;39539;52.202;9.876;2023-01-19T10:06:41;99312.69;;;1.84;100.00
19676;BME280;39539;52.202;9.876;2023-01-19T10:09:17;99312.44;;;1.64;100.00
19676;BME280;39539;52.202;9.876;2023-01-19T10:11:50;99323.00;;;1.71;100.00
19676;BME280;39539;52.202;9.876;2023-01-19T10:14:27;99325.53;;;1.79;100.00
19676;BME280;39539;52.202;9.876;2023-01-19T10:17:17;99327.97;;;1.66;100.00
19676;BME280;39539;52.202;9.876;2023-01-19T10:19:52;99328.00;;;1.51;100.00
19676;BME280;39539;52.202;9.876;2023-01-19T10:22:26;99329.25;;;1.55;100.00
19676;BME280;39539;52.202;9.876;2023-01-19T10:25:01;99322.19;;;1.70;100.00
19676;BME280;39539;52.202;9.876;2023-01-19T10:27:31;99339.41;;;1.94;100.00
19676;BME280;39539;52.202;9.876;2023-01-19T10:30:00;99339.84;;;1.98;100.00
19676;BME280;39539;52.202;9.876;2023-01-19T10:32:29;99340.78;;;1.90;100.00
19676;BME280;39539;52.202;9.876;2023-01-19T10:34:55;99328.59;;;1.68;100.00
19676;BME280;39539;52.202;9.876;2023-01-19T10:40:05;99339.78;;;1.76;100.00
19676;BME280;39539;52.202;9.876;2023-01-19T10:42:40;99323.91;;;1.63;100.00
19676;BME280;39539;52.202;9.876;2023-01-19T10:45:20;99335.72;;;1.74;100.00
19676;BME280;39539;52.202;9.876;2023-01-19T10:47:48;99342.31;;;1.70;100.00
19676;BME280;39539;52.202;9.876;2023-01-19T10:50:28;99345.69;;;1.78;100.00
19676;BME280;39539;52.202;9.876;2023-01-19T10:53:02;99356.16;;;1.78;100.00
19676;BME280;39539;52.202;9.876;2023-01-19T10:55:35;99355.41;;;1.70;100.00
19676;BME280;39539;52.202;9.876;2023-01-19T10:58:06;99357.94;;;1.78;100.00
19676;BME280;39539;52.202;9.876;2023-01-19T11:00:49;99340.78;;;1.75;100.00
19676;BME280;39539;52.202;9.876;2023-01-19T11:03:28;99353.25;;;1.73;100.00
19676;BME280;39539;52.202;9.876;2023-01-19T11:08:44;99341.72;;;1.68;100.00
19676;BME280;39539;52.202;9.876;2023-01-19T11:11:10;99354.63;;;1.84;100.00
19676;BME280;39539;52.202;9.876;2023-01-19T11:13:40;99339.44;;;1.79;100.00
19676;BME280;39539;52.202;9.876;2023-01-19T11:16:26;99366.75;;;2.07;100.00
19676;BME280;39539;52.202;9.876;2023-01-19T11:18:54;99373.44;;;2.09;100.00
19676;BME280;39539;52.202;9.876;2023-01-19T11:21:25;99370.28;;;2.14;100.00
19676;BME280;39539;52.202;9.876;2023-01-19T11:23:56;99389.31;;;2.22;100.00
19676;BME280;39539;52.202;9.876;2023-01-19T11:28:55;99375.13;;;2.17;100.00
19676;BME280;39539;52.202;9.876;2023-01-19T11:33:55;99379.03;;;2.06;100.00
19676;BME280;39539;52.202;9.876;2023-01-19T11:36:31;99387.72;;;2.21;100.00
19676;BME280;39539;52.202;9.876;2023-01-19T11:38:59;99373.31;;;2.32;100.00
19676;BME280;39539;52.202;9.876;2023-01-19T11:41:34;99374.28;;;2.31;100.00
19676;BME280;39539;52.202;9.876;2023-01-19T11:44:20;99382.47;;;2.21;100.00
19676;BME280;39539;52.202;9.876;2023-01-19T11:46:52;99389.47;;;2.36;100.00
19676;BME280;39539;52.202;9.876;2023-01-19T11:49:27;99383.81;;;2.32;100.00
19676;BME280;39539;52.202;9.876;2023-01-19T11:54:28;99384.22;;;2.36;100.00
19676;BME280;39539;52.202;9.876;2023-01-19T11:57:10;99387.50;;;2.23;100.00
19676;BME280;39539;52.202;9.876;2023-01-19T11:59:36;99395.00;;;2.26;100.00
19676;BME280;39539;52.202;9.876;2023-01-19T12:02:09;99389.41;;;2.14;100.00
19676;BME280;39539;52.202;9.876;2023-01-19T12:04:37;99393.41;;;2.10;100.00
19676;BME280;39539;52.202;9.876;2023-01-19T12:07:07;99387.38;;;1.95;100.00
19676;BME280;39539;52.202;9.876;2023-01-19T12:09:50;99394.63;;;1.93;100.00
19676;BME280;39539;52.202;9.876;2023-01-19T12:12:33;99401.56;;;1.86;100.00
19676;BME280;39539;52.202;9.876;2023-01-19T12:15:09;99405.19;;;1.85;100.00
19676;BME280;39539;52.202;9.876;2023-01-19T12:17:44;99402.03;;;1.74;100.00
19676;BME280;39539;52.202;9.876;2023-01-19T12:25:37;99397.47;;;1.98;100.00
19676;BME280;39539;52.202;9.876;2023-01-19T12:28:11;99416.72;;;2.20;100.00
19676;BME280;39539;52.202;9.876;2023-01-19T12:30:39;99423.22;;;2.09;100.00
19676;BME280;39539;52.202;9.876;2023-01-19T12:33:34;99428.47;;;1.94;100.00
19676;BME280;39539;52.202;9.876;2023-01-19T12:38:49;99432.19;;;1.70;100.00
19676;BME280;39539;52.202;9.876;2023-01-19T12:41:36;99432.44;;;1.46;100.00
19676;BME280;39539;52.202;9.876;2023-01-19T12:46:52;99446.72;;;1.20;100.00
19676;BME280;39539;52.202;9.876;2023-01-19T12:49:24;99443.88;;;1.07;100.00
19676;BME280;39539;52.202;9.876;2023-01-19T12:51:53;99443.75;;;0.85;100.00
19676;BME280;39539;52.202;9.876;2023-01-19T12:54:30;99455.72;;;0.80;100.00
19676;BME280;39539;52.202;9.876;2023-01-19T12:57:08;99434.69;;;0.65;100.00
19676;BME280;39539;52.202;9.876;2023-01-19T12:59:39;99451.03;;;0.67;100.00
19676;BME280;39539;52.202;9.876;2023-01-19T13:21:46;99496.03;;;0.62;100.00
19676;BME280;39539;52.202;9.876;2023-01-19T13:24:18;99507.59;;;0.68;100.00
19676;BME280;39539;52.202;9.876;2023-01-19T13:29:31;99506.47;;;0.62;100.00
19676;BME280;39539;52.202;9.876;2023-01-19T13:32:05;99517.91;;;0.61;100.00
19676;BME280;39539;52.202;9.876;2023-01-19T13:34:44;99528.22;;;0.63;100.00
19676;BME280;39539;52.202;9.876;2023-01-19T13:37:24;99519.59;;;0.54;100.00
19676;BME280;39539;52.202;9.876;2023-01-19T13:39:52;99514.47;;;0.61;100.00
19676;BME280;39539;52.202;9.876;2023-01-19T13:44:51;99548.00;;;0.88;100.00
19676;BME280;39539;52.202;9.876;2023-01-19T13:47:22;99527.44;;;0.85;100.00
19676;BME280;39539;52.202;9.876;2023-01-19T13:49:50;99552.47;;;1.11;100.00
19676;BME280;39539;52.202;9.876;2023-01-19T13:52:27;99557.00;;;1.17;100.00
19676;BME280;39539;52.202;9.876;2023-01-19T13:54:59;99562.41;;;1.16;100.00
19676;BME280;39539;52.202;9.876;2023-01-19T13:57:31;99569.91;;;1.19;100.00
19676;BME280;39539;52.202;9.876;2023-01-19T14:00:22;99576.44;;;1.23;100.00
19676;BME280;39539;52.202;9.876;2023-01-19T14:02:55;99581.78;;;1.29;100.00
19676;BME280;39539;52.202;9.876;2023-01-19T14:05:38;99582.53;;;1.38;100.00
19676;BME280;39539;52.202;9.876;2023-01-19T14:08:12;99591.91;;;1.32;100.00
19676;BME280;39539;52.202;9.876;2023-01-19T14:11:00;99584.41;;;1.29;100.00
19676;BME280;39539;52.202;9.876;2023-01-19T14:13:31;99588.00;;;1.28;100.00
19676;BME280;39539;52.202;9.876;2023-01-19T14:16:03;99593.91;;;1.30;100.00
19676;BME280;39539;52.202;9.876;2023-01-19T14:18:34;99590.97;;;1.25;100.00
19676;BME280;39539;52.202;9.876;2023-01-19T14:26:37;99606.91;;;1.39;100.00
19676;BME280;39539;52.202;9.876;2023-01-19T14:28:51;99613.91;;;1.46;100.00